メインページ
METAR-TAF:

METAR-TAF

空港 :

エルモシージョ, メキシコ

緯度: 29-04N, 経度: 110-57W, 海抜: 211m

現時点の気象観測

当レポートは50分前の12:40(UTC)に作成
無風
気温 12°C
湿度 62%
気圧 1018 hPa
視程: 16.1km
晴天

METAR: MMHO 231240Z 00000KT 10SM SKC 12/05 A3005 RMK ISOL CI

時間: 06:30 (13:30 UTC)

予報

当レポートは9時間59分前の03:31(UTC)に作成
予報は23日の 06時(UTC)から 24日の 06時(UTC)まで有効
西の風 5kt
視程: 10km
晴天
23日の 1800時(UTC)から
南西の風 10kt
視程: 10km
高度25000ftの千切れ雲あり
24日の 0500時(UTC)から
西/南西の風 5kt
視程: 10km
晴天

TAF: MMHO 230331Z 2306/2406 27005KT P6SM SKC FM231800 22010KT P6SM BKN250 FM240500 24005KT P6SM SKC

4,000以上の空港の気象観測と天気予報(METAR報とTAF報)

利用可能な観測所は地図上に黄色い丸と赤い丸で示す。

丸の上にカーソルを重ねると観測所名を参照できる。

次にクリックすると気象観測と天気予報を参照できる。

マップの切り替え:黒色「×」印の緑ボタンをクリックして拡大、「-」印の緑ボタンをクリックして縮小、緑色の三角印をクリックして隣りの地図に切り替え


METAR-TAF: